HETCH HETCHY (HTH)

Elevation: 3870' · TUOLUMNE R basin · Operator: Hetch Hetchy Water and Power

Provisional data, subject to change.
Query executed Wednesday at 18:08:12   clock

Select a sensor type for a plot of data.
Note: Reservoir Flows are daily averages.

Earlier

Date RES ELE    STORAGE    RES CHG    OUTFLOW    INFLOW    PPT INC    RAIN    PPTINC4   
 FEET   AF   AF   CFS   CFS   INCHES   INCHES   INCHES  
02/05/2015 -- 233168 -- 97 -- 0.00 8.82 0.00
02/06/2015 -- 232832 -- 234 -- 0.00 8.82 0.00
02/07/2015 -- 232832 -- 225 -- 1.05 9.87 0.83
02/08/2015 -- 235016 -- 177 -- 1.25 11.12 0.39
02/09/2015 -- 239580 -- 197 -- 1.44 12.56 1.47
02/10/2015 -- 242300 -- 230 -- 0.00 12.56 0.07
02/11/2015 -- 243497 -- 236 -- 0.00 12.56 0.00
02/12/2015 -- 244352 -- 230 -- 0.00 12.56 0.00
02/13/2015 -- 245036 -- 196 -- 0.00 12.56 0.00
02/14/2015 -- 245892 -- 212 -- 0.00 12.56 0.00
02/15/2015 -- 246580 -- 215 -- 0.00 12.56 0.00
02/16/2015 -- 247096 -- 271 -- 0.00 12.56 0.00
02/17/2015 -- 247612 -- 218 -- 0.00 12.56 0.00
02/18/2015 -- 248472 -- 263 -- 0.00 12.56 0.00
02/19/2015 -- 248300 -- 290 -- 0.00 12.56 0.00
02/20/2015 -- 248816 -- 312 -- 0.00 12.56 0.00
02/21/2015 -- 249160 -- 279 -- 0.00 12.56 0.00
02/22/2015 -- 249506 -- 235 -- 0.07 12.63 0.00
02/23/2015 -- 249852 -- 275 -- 0.00 12.63 0.05
02/24/2015 -- 249679 -- 333 -- 0.00 12.63 0.00
02/25/2015 -- 249679 -- 320 -- 0.00 12.63 0.00
02/26/2015 -- 249679 -- 350 -- 0.00 12.63 0.00
02/27/2015 -- 249333 -- 438 -- 0.00 12.63 0.00
02/28/2015 -- 249160 -- 344 -- 0.31 12.94 0.23
03/01/2015 -- 249160 -- 328 -- 0.19 13.13 0.24
03/02/2015 -- 248988 -- 323 -- 0.17 13.30 0.00
03/03/2015 -- 248816 -- 337 -- 0.09 13.39 0.23
03/04/2015 -- -- -- -- -- 0.00 -- 0.00

Later | Latest

Warning! This data is preliminary and subject to revision.

Show HTH Map | Plot HTH Data | 1 Month HTH Data | Real-Time HTH Data | HTH Info